Time;durP1;ratioP1;P1;durP2;ratioP2;P2;SDS_P1;SDS_P2;PMS_P1;PMS_P2;Temp;Humidity;BMP_temperature;BMP_pressure;BME280_temperature;BME280_humidity;BME280_pressure;Samples;Min_cycle;Max_cycle;Signal;HPM_P1;HPM_P2
2022/03/22 00:01:06;;;;;;;43.20;23.73;;;;;;;;;;5113889;28;20035;-75
2022/03/22 00:03:32;;;;;;;42.47;23.58;;;;;;;;;;5106628;28;20115;-75
2022/03/22 00:05:58;;;;;;;45.58;23.98;;;;;;;;;;5093466;28;20016;-75
2022/03/22 00:08:25;;;;;;;45.38;23.77;;;;;;;;;;5093541;28;20024;-75
2022/03/22 00:10:51;;;;;;;40.72;23.35;;;;;;;;;;5093469;28;20031;-75
2022/03/22 00:13:17;;;;;;;42.20;23.67;;;;;;;;;;5093148;28;20020;-75
2022/03/22 00:15:44;;;;;;;49.15;23.95;;;;;;;;;;5092942;28;20047;-75
2022/03/22 00:18:10;;;;;;;47.15;22.95;;;;;;;;;;5093150;28;20046;-75
2022/03/22 00:20:37;;;;;;;46.63;23.52;;;;;;;;;;5077663;28;20024;-75
2022/03/22 00:23:03;;;;;;;47.80;23.85;;;;;;;;;;5072676;28;20050;-75
2022/03/22 00:25:29;;;;;;;41.00;22.38;;;;;;;;;;5072539;28;20477;-75
2022/03/22 00:27:57;;;;;;;42.42;23.13;;;;;;;;;;5072585;28;20035;-75
2022/03/22 00:30:24;;;;;;;45.65;24.52;;;;;;;;;;5072769;28;20033;-75
2022/03/22 00:32:54;;;;;;;42.45;23.48;;;;;;;;;;5072702;28;20363;-75
2022/03/22 00:35:30;;;;;;;42.13;23.45;;;;;;;;;;5072671;28;20024;-75
2022/03/22 00:37:57;;;;;;;46.08;24.10;;;;;;;;;;5072598;28;20036;-75
2022/03/22 00:40:27;;;;;;;43.05;23.02;;;;;;;;;;5072701;28;20020;-75
2022/03/22 00:42:53;;;;;;;47.15;24.08;;;;;;;;;;5072542;28;20069;-75
2022/03/22 00:45:21;;;;;;;44.00;23.17;;;;;;;;;;5054391;28;20025;-75
2022/03/22 00:47:48;;;;;;;49.10;23.98;;;;;;;;;;5072525;28;20025;-75
2022/03/22 00:50:16;;;;;;;47.33;23.30;;;;;;;;;;5072042;28;20111;-75
2022/03/22 00:52:42;;;;;;;43.03;23.77;;;;;;;;;;5072172;28;20028;-75
2022/03/22 00:55:09;;;;;;;47.92;25.38;;;;;;;;;;5072348;28;20028;-75
2022/03/22 00:57:35;;;;;;;48.10;24.90;;;;;;;;;;5072313;28;20033;-75
2022/03/22 01:00:02;;;;;;;46.80;24.27;;;;;;;;;;5072239;28;20088;-75
2022/03/22 01:02:28;;;;;;;43.15;23.45;;;;;;;;;;5072255;28;20035;-75
2022/03/22 01:04:56;;;;;;;46.30;24.10;;;;;;;;;;5090525;28;20051;-75
2022/03/22 01:07:22;;;;;;;47.28;23.65;;;;;;;;;;5092316;28;20020;-75
2022/03/22 01:09:48;;;;;;;42.25;22.40;;;;;;;;;;5092311;28;20091;-75
2022/03/22 01:12:15;;;;;;;46.63;23.75;;;;;;;;;;5074411;28;20335;-75
2022/03/22 01:14:42;;;;;;;47.50;22.67;;;;;;;;;;5091959;28;20431;-75
2022/03/22 01:17:08;;;;;;;45.65;24.33;;;;;;;;;;5092403;28;20024;-75
2022/03/22 01:19:35;;;;;;;43.65;24.13;;;;;;;;;;5091788;28;20040;-75
2022/03/22 01:22:01;;;;;;;46.40;25.17;;;;;;;;;;5092239;28;20024;-75
2022/03/22 01:24:28;;;;;;;47.85;24.45;;;;;;;;;;5091991;28;20027;-75
2022/03/22 01:26:54;;;;;;;53.95;24.80;;;;;;;;;;5091861;28;20023;-75
2022/03/22 01:29:21;;;;;;;53.78;24.13;;;;;;;;;;5092093;28;20094;-75
2022/03/22 01:31:49;;;;;;;42.13;23.13;;;;;;;;;;5092070;28;20069;-75
2022/03/22 01:34:15;;;;;;;45.20;22.85;;;;;;;;;;5092014;28;20050;-75
2022/03/22 01:36:41;;;;;;;49.78;23.77;;;;;;;;;;5092551;28;20020;-75
2022/03/22 01:39:07;;;;;;;51.35;25.02;;;;;;;;;;5091947;28;20481;-75
2022/03/22 01:41:34;;;;;;;50.25;24.55;;;;;;;;;;5092000;28;20028;-75
2022/03/22 01:44:00;;;;;;;51.22;23.25;;;;;;;;;;5091985;28;20013;-75
2022/03/22 01:46:27;;;;;;;48.92;24.77;;;;;;;;;;5091785;28;20035;-75
2022/03/22 01:48:54;;;;;;;78.65;24.20;;;;;;;;;;5092090;28;20033;-75
2022/03/22 01:51:23;;;;;;;44.75;22.65;;;;;;;;;;5100752;28;20068;-75
2022/03/22 01:53:49;;;;;;;43.33;22.65;;;;;;;;;;5112236;28;20493;-75
2022/03/22 01:56:16;;;;;;;44.30;23.73;;;;;;;;;;5112387;28;20038;-75
2022/03/22 01:58:42;;;;;;;46.35;22.40;;;;;;;;;;5112155;28;20532;-75
2022/03/22 02:06:40;;;;;;;46.47;24.60;;;;;;;;;;5095965;28;20085;-75
2022/03/22 02:09:06;;;;;;;48.70;24.20;;;;;;;;;;5096080;28;20031;-75
2022/03/22 02:11:32;;;;;;;44.67;23.17;;;;;;;;;;5077674;28;20112;-75
2022/03/22 02:13:58;;;;;;;44.50;23.77;;;;;;;;;;5095910;28;20028;-75
2022/03/22 02:16:24;;;;;;;43.60;25.05;;;;;;;;;;5095709;28;20028;-75
2022/03/22 02:18:51;;;;;;;54.90;25.38;;;;;;;;;;5094864;28;20035;-75
2022/03/22 02:21:18;;;;;;;43.40;23.23;;;;;;;;;;5069425;28;20013;-75
2022/03/22 02:23:57;;;;;;;45.28;23.40;;;;;;;;;;5075315;28;20103;-75
2022/03/22 02:26:27;;;;;;;47.58;24.33;;;;;;;;;;5075218;28;20379;-75
2022/03/22 02:28:53;;;;;;;41.88;21.95;;;;;;;;;;5075322;28;20025;-75
2022/03/22 02:31:27;;;;;;;41.53;23.40;;;;;;;;;;5075093;28;20446;-75
2022/03/22 02:33:53;;;;;;;45.25;22.95;;;;;;;;;;5075181;28;20075;-75
2022/03/22 02:36:19;;;;;;;45.53;23.92;;;;;;;;;;5057114;28;20331;-75
2022/03/22 02:38:45;;;;;;;41.33;22.48;;;;;;;;;;5074842;28;20036;-75
2022/03/22 02:41:16;;;;;;;43.20;23.80;;;;;;;;;;5074809;28;20107;-75
2022/03/22 02:43:42;;;;;;;43.47;22.67;;;;;;;;;;5075023;28;20020;-75
2022/03/22 02:46:08;;;;;;;46.17;23.10;;;;;;;;;;5074979;28;20024;-75
2022/03/22 02:48:34;;;;;;;43.20;23.15;;;;;;;;;;5074762;28;20074;-75
2022/03/22 02:51:00;;;;;;;47.22;23.75;;;;;;;;;;5086582;28;20040;-75
2022/03/22 02:53:26;;;;;;;44.72;22.55;;;;;;;;;;5115471;28;20081;-75
2022/03/22 02:55:53;;;;;;;55.65;23.77;;;;;;;;;;5115498;28;20061;-75
2022/03/22 02:58:19;;;;;;;43.58;23.58;;;;;;;;;;5115033;28;20448;-75
2022/03/22 03:00:45;;;;;;;47.58;22.95;;;;;;;;;;5115369;28;20050;-75
2022/03/22 03:03:11;;;;;;;48.40;24.48;;;;;;;;;;5115072;28;20060;-75
2022/03/22 03:05:38;;;;;;;47.10;23.17;;;;;;;;;;5115218;28;20430;-75
2022/03/22 03:08:06;;;;;;;40.50;21.95;;;;;;;;;;5115242;28;20024;-75
2022/03/22 03:10:32;;;;;;;46.08;23.63;;;;;;;;;;5115066;28;20030;-75
2022/03/22 03:13:03;;;;;;;43.63;23.02;;;;;;;;;;5115007;28;20098;-75
2022/03/22 03:15:30;;;;;;;50.72;24.17;;;;;;;;;;5114324;28;20028;-75
2022/03/22 03:17:56;;;;;;;50.38;23.75;;;;;;;;;;5096564;28;20572;-75
2022/03/22 03:20:22;;;;;;;46.40;23.67;;;;;;;;;;5088422;28;20021;-75
2022/03/22 03:22:48;;;;;;;45.75;23.40;;;;;;;;;;5074342;28;20028;-75
2022/03/22 03:25:14;;;;;;;51.20;22.83;;;;;;;;;;5074127;28;20431;-75
2022/03/22 03:27:40;;;;;;;45.15;23.20;;;;;;;;;;5074277;28;20017;-75
2022/03/22 03:30:07;;;;;;;53.28;23.70;;;;;;;;;;5074243;28;20020;-75
2022/03/22 03:32:34;;;;;;;50.08;25.25;;;;;;;;;;5074244;28;20380;-75
2022/03/22 03:35:00;;;;;;;45.47;22.58;;;;;;;;;;5074035;28;20031;-75
2022/03/22 03:37:29;;;;;;;45.83;24.05;;;;;;;;;;5074083;28;20024;-75
2022/03/22 03:39:55;;;;;;;50.13;23.25;;;;;;;;;;5073865;28;20362;-75
2022/03/22 03:42:22;;;;;;;44.45;22.80;;;;;;;;;;5073914;28;20409;-75
2022/03/22 03:47:34;;;;;;;44.85;24.40;;;;;;;;;;5074228;28;20110;-75
2022/03/22 03:50:01;;;;;;;43.33;22.85;;;;;;;;;;5073758;28;20033;-75
2022/03/22 03:52:31;;;;;;;43.78;22.48;;;;;;;;;;5109882;28;20030;-75
2022/03/22 03:54:58;;;;;;;40.00;22.15;;;;;;;;;;5114337;28;20035;-75
2022/03/22 03:57:24;;;;;;;40.13;21.77;;;;;;;;;;5095961;28;20538;-75
2022/03/22 03:59:51;;;;;;;45.72;23.75;;;;;;;;;;5114272;28;20035;-75
2022/03/22 04:02:17;;;;;;;48.67;23.52;;;;;;;;;;5114371;28;20054;-75
2022/03/22 04:04:44;;;;;;;43.30;22.85;;;;;;;;;;5113928;28;20047;-75
2022/03/22 04:07:11;;;;;;;41.50;22.00;;;;;;;;;;5113972;28;20389;-75
2022/03/22 04:09:38;;;;;;;42.85;22.40;;;;;;;;;;5113831;28;20032;-75
2022/03/22 04:12:05;;;;;;;43.55;22.48;;;;;;;;;;5113928;28;20020;-75
2022/03/22 04:14:31;;;;;;;43.13;23.13;;;;;;;;;;5113832;28;20464;-75
2022/03/22 04:16:57;;;;;;;54.67;24.63;;;;;;;;;;5113748;28;20442;-75
2022/03/22 04:19:24;;;;;;;44.40;23.67;;;;;;;;;;5103963;28;20028;-75
2022/03/22 04:21:50;;;;;;;43.08;23.15;;;;;;;;;;5072992;28;20032;-75
2022/03/22 04:24:16;;;;;;;48.38;24.90;;;;;;;;;;5072985;28;20020;-75
2022/03/22 04:26:43;;;;;;;44.45;23.48;;;;;;;;;;5072849;28;20021;-75
2022/03/22 04:34:41;;;;;;;46.40;24.23;;;;;;;;;;5073167;28;20398;-75
2022/03/22 04:37:07;;;;;;;47.53;22.77;;;;;;;;;;5072731;28;20035;-75
2022/03/22 04:39:34;;;;;;;44.45;22.73;;;;;;;;;;5072529;28;20032;-75
2022/03/22 04:42:00;;;;;;;42.00;21.60;;;;;;;;;;5072698;28;20423;-75
2022/03/22 04:44:28;;;;;;;42.15;23.00;;;;;;;;;;5072805;28;20029;-75
2022/03/22 04:46:54;;;;;;;42.83;22.27;;;;;;;;;;5072718;28;20444;-75
2022/03/22 04:49:20;;;;;;;42.55;21.10;;;;;;;;;;5072500;28;20094;-75
2022/03/22 04:57:16;;;;;;;44.25;22.67;;;;;;;;;;5113210;28;20188;-75
2022/03/22 04:59:43;;;;;;;48.40;23.92;;;;;;;;;;5113084;28;20093;-75
2022/03/22 05:02:10;;;;;;;43.05;23.25;;;;;;;;;;5113011;28;20024;-75
2022/03/22 05:04:36;;;;;;;43.88;23.45;;;;;;;;;;5112778;28;20354;-75
2022/03/22 05:07:03;;;;;;;38.47;21.35;;;;;;;;;;5112898;28;20038;-75
2022/03/22 05:09:29;;;;;;;43.90;23.52;;;;;;;;;;5112925;28;20377;-75
2022/03/22 05:11:56;;;;;;;48.28;23.30;;;;;;;;;;5112906;28;20031;-75
2022/03/22 05:14:22;;;;;;;42.78;22.33;;;;;;;;;;5112749;28;20024;-75
2022/03/22 05:16:48;;;;;;;41.95;22.60;;;;;;;;;;5112845;28;20373;-75
2022/03/22 05:19:14;;;;;;;52.47;24.58;;;;;;;;;;5087200;28;20386;-75
2022/03/22 05:21:40;;;;;;;45.08;23.20;;;;;;;;;;5072130;28;20024;-75
2022/03/22 05:24:07;;;;;;;47.33;24.35;;;;;;;;;;5072221;28;20478;-75
2022/03/22 05:26:33;;;;;;;45.38;23.33;;;;;;;;;;5072056;28;20012;-75
2022/03/22 05:28:59;;;;;;;49.50;25.60;;;;;;;;;;5072130;28;20039;-75
2022/03/22 05:31:26;;;;;;;47.67;25.15;;;;;;;;;;5072325;28;20033;-75
2022/03/22 05:33:55;;;;;;;41.53;21.98;;;;;;;;;;5071880;28;20378;-75
2022/03/22 05:36:21;;;;;;;47.88;24.45;;;;;;;;;;5072091;28;20025;-75
2022/03/22 05:38:47;;;;;;;46.40;23.95;;;;;;;;;;5075578;28;20082;-75
2022/03/22 05:41:13;;;;;;;42.08;23.10;;;;;;;;;;5076188;28;20032;-75
2022/03/22 05:43:40;;;;;;;49.75;23.08;;;;;;;;;;5075865;28;20028;-75
2022/03/22 05:46:06;;;;;;;43.95;22.10;;;;;;;;;;5057941;28;20028;-75
2022/03/22 05:48:32;;;;;;;44.72;23.73;;;;;;;;;;5090600;28;20028;-75
2022/03/22 05:50:58;;;;;;;45.42;25.75;;;;;;;;;;5096112;28;20016;-75
2022/03/22 05:53:24;;;;;;;45.75;22.52;;;;;;;;;;5096178;28;20028;-75
2022/03/22 05:55:51;;;;;;;52.75;25.15;;;;;;;;;;5096695;28;20025;-75
2022/03/22 05:58:17;;;;;;;48.10;23.77;;;;;;;;;;5095935;28;20032;-75
2022/03/22 06:00:43;;;;;;;47.22;24.05;;;;;;;;;;5096085;28;20121;-75
2022/03/22 06:03:09;;;;;;;49.92;24.02;;;;;;;;;;5079479;28;20111;-75
2022/03/22 06:05:35;;;;;;;50.10;23.83;;;;;;;;;;5116444;28;20032;-75
2022/03/22 06:08:01;;;;;;;45.03;22.85;;;;;;;;;;5116174;28;20028;-75
2022/03/22 06:10:28;;;;;;;45.63;23.85;;;;;;;;;;5116275;28;20019;-75
2022/03/22 06:12:55;;;;;;;46.17;23.45;;;;;;;;;;5116222;28;20023;-75
2022/03/22 06:15:22;;;;;;;54.80;25.77;;;;;;;;;;5116094;28;20028;-75
2022/03/22 06:17:56;;;;;;;43.70;23.55;;;;;;;;;;5116107;28;20035;-75
2022/03/22 06:20:23;;;;;;;44.28;23.92;;;;;;;;;;5102602;28;20023;-75
2022/03/22 06:22:50;;;;;;;52.80;24.10;;;;;;;;;;5095311;28;20016;-75
2022/03/22 06:25:17;;;;;;;50.03;23.40;;;;;;;;;;5095416;28;20052;-75
2022/03/22 06:27:44;;;;;;;51.47;24.85;;;;;;;;;;5095385;28;20074;-75
2022/03/22 06:30:11;;;;;;;47.95;24.63;;;;;;;;;;5095407;28;20039;-75
2022/03/22 06:32:41;;;;;;;52.60;23.70;;;;;;;;;;5095545;28;20527;-75
2022/03/22 06:35:08;;;;;;;43.25;22.27;;;;;;;;;;5095519;28;20439;-75
2022/03/22 06:37:34;;;;;;;48.63;23.52;;;;;;;;;;5095513;28;20035;-76
2022/03/22 06:40:00;;;;;;;40.33;22.65;;;;;;;;;;5095154;28;20070;-75
2022/03/22 06:42:27;;;;;;;49.17;23.75;;;;;;;;;;5095171;28;20032;-75
2022/03/22 06:44:53;;;;;;;49.60;22.38;;;;;;;;;;5095281;28;20012;-76
2022/03/22 06:47:19;;;;;;;36.80;22.60;;;;;;;;;;5095377;28;20024;-75
2022/03/22 06:49:46;;;;;;;43.45;22.08;;;;;;;;;;5094999;28;20032;-75
2022/03/22 06:52:12;;;;;;;42.80;21.75;;;;;;;;;;5111047;28;20454;-75
2022/03/22 06:54:38;;;;;;;38.55;21.33;;;;;;;;;;5115296;28;20024;-75
2022/03/22 06:57:05;;;;;;;41.42;21.48;;;;;;;;;;5115535;28;20486;-76
2022/03/22 06:59:32;;;;;;;34.55;20.73;;;;;;;;;;5115086;28;20028;-75
2022/03/22 07:01:58;;;;;;;37.58;20.80;;;;;;;;;;5115446;28;20024;-75
2022/03/22 07:04:24;;;;;;;40.03;20.80;;;;;;;;;;5115114;28;20035;-76
2022/03/22 07:06:50;;;;;;;41.80;20.58;;;;;;;;;;5115152;28;20031;-75
2022/03/22 07:09:16;;;;;;;45.38;20.20;;;;;;;;;;5114937;28;20028;-75
2022/03/22 07:11:52;;;;;;;33.10;19.60;;;;;;;;;;5115015;28;20031;-75
2022/03/22 07:14:19;;;;;;;36.47;19.77;;;;;;;;;;5114837;28;20031;-75
2022/03/22 07:16:48;;;;;;;38.15;19.88;;;;;;;;;;5114999;28;20031;-75
2022/03/22 07:19:14;;;;;;;32.60;19.33;;;;;;;;;;5114638;28;20038;-75
2022/03/22 07:21:41;;;;;;;42.13;20.67;;;;;;;;;;5114644;28;20027;-75
2022/03/22 07:24:08;;;;;;;34.63;19.67;;;;;;;;;;5114599;28;20087;-75
2022/03/22 07:26:34;;;;;;;37.13;20.05;;;;;;;;;;5115028;28;20016;-77
2022/03/22 07:29:00;;;;;;;34.65;19.10;;;;;;;;;;5117223;27;20472;-75
2022/03/22 07:31:26;;;;;;;42.35;19.70;;;;;;;;;;5130325;27;20031;-76
2022/03/22 07:33:52;;;;;;;37.15;19.00;;;;;;;;;;5121023;27;20027;-76
2022/03/22 07:36:18;;;;;;;34.25;18.45;;;;;;;;;;5118549;27;20046;-75
2022/03/22 07:38:44;;;;;;;35.45;18.17;;;;;;;;;;5126473;27;20027;-76
2022/03/22 07:41:13;;;;;;;34.45;18.88;;;;;;;;;;5126136;27;20462;-75
2022/03/22 07:43:41;;;;;;;37.58;18.38;;;;;;;;;;5123120;27;20362;-75
2022/03/22 07:46:07;;;;;;;32.83;18.42;;;;;;;;;;5123121;27;20057;-75
2022/03/22 07:48:33;;;;;;;29.95;18.25;;;;;;;;;;5120115;27;20026;-75
2022/03/22 07:53:44;;;;;;;34.80;17.40;;;;;;;;;;5117854;27;20476;-75
2022/03/22 07:56:11;;;;;;;32.97;18.08;;;;;;;;;;5125893;27;20417;-75
2022/03/22 07:58:37;;;;;;;29.95;17.63;;;;;;;;;;5122555;27;20382;-76
2022/03/22 08:01:03;;;;;;;35.05;18.67;;;;;;;;;;5121441;27;20015;-76
2022/03/22 08:03:30;;;;;;;29.60;17.17;;;;;;;;;;5123246;27;20039;-76
2022/03/22 08:05:56;;;;;;;32.72;17.63;;;;;;;;;;5125282;27;20132;-75
2022/03/22 08:08:22;;;;;;;30.95;17.25;;;;;;;;;;5116692;27;20023;-73
2022/03/22 08:10:48;;;;;;;36.33;17.13;;;;;;;;;;5113547;28;20330;-73
2022/03/22 08:13:15;;;;;;;31.58;16.65;;;;;;;;;;5112513;28;20027;-74
2022/03/22 08:15:41;;;;;;;29.65;17.63;;;;;;;;;;5094614;28;20024;-78
2022/03/22 08:18:10;;;;;;;30.02;16.63;;;;;;;;;;5114080;28;20461;-77
2022/03/22 08:20:36;;;;;;;33.08;16.80;;;;;;;;;;5098688;28;20086;-76
2022/03/22 08:23:04;;;;;;;27.70;17.05;;;;;;;;;;5093397;28;20020;-77
2022/03/22 08:25:40;;;;;;;39.25;17.70;;;;;;;;;;5094972;27;20016;-76
2022/03/22 08:28:07;;;;;;;32.08;17.23;;;;;;;;;;5114467;27;20476;-76
2022/03/22 08:30:34;;;;;;;34.40;16.95;;;;;;;;;;5114498;28;20069;-76
2022/03/22 08:33:03;;;;;;;35.28;18.50;;;;;;;;;;5114270;28;20491;-72
2022/03/22 08:35:30;;;;;;;30.10;17.33;;;;;;;;;;5113133;28;20035;-72
2022/03/22 08:37:56;;;;;;;30.55;16.83;;;;;;;;;;5122812;27;20034;-74
2022/03/22 08:40:23;;;;;;;30.88;16.55;;;;;;;;;;5122302;27;20369;-75
2022/03/22 08:42:51;;;;;;;30.50;17.83;;;;;;;;;;5124724;27;20491;-72
2022/03/22 08:45:19;;;;;;;36.00;17.30;;;;;;;;;;5132542;27;20114;-74
2022/03/22 08:47:46;;;;;;;27.85;17.38;;;;;;;;;;5124952;27;20023;-74
2022/03/22 08:50:14;;;;;;;31.38;17.23;;;;;;;;;;5114102;28;20024;-73
2022/03/22 08:52:41;;;;;;;30.35;17.92;;;;;;;;;;5113818;28;20035;-74
2022/03/22 08:55:08;;;;;;;32.65;18.08;;;;;;;;;;5112754;28;20020;-75
2022/03/22 08:57:37;;;;;;;30.42;17.83;;;;;;;;;;5115098;28;20027;-76
2022/03/22 09:00:09;;;;;;;31.60;17.65;;;;;;;;;;5113281;28;20023;-75
2022/03/22 09:02:36;;;;;;;30.33;16.17;;;;;;;;;;5112840;28;20059;-76
2022/03/22 09:07:47;;;;;;;29.50;16.92;;;;;;;;;;5118882;27;20474;-75
2022/03/22 09:10:14;;;;;;;37.85;17.10;;;;;;;;;;5110570;28;20028;-73
2022/03/22 09:12:41;;;;;;;30.00;17.33;;;;;;;;;;5111785;28;20594;-73
2022/03/22 09:15:07;;;;;;;31.90;16.00;;;;;;;;;;5091959;28;20028;-74
2022/03/22 09:17:33;;;;;;;29.95;16.50;;;;;;;;;;5091991;28;20024;-74
2022/03/22 09:19:59;;;;;;;29.55;16.48;;;;;;;;;;5101588;28;20024;-74
2022/03/22 09:22:25;;;;;;;28.65;16.77;;;;;;;;;;5111039;28;20085;-72
2022/03/22 09:24:52;;;;;;;29.67;16.20;;;;;;;;;;5110986;28;20400;-71
2022/03/22 09:27:18;;;;;;;29.67;16.77;;;;;;;;;;5112904;28;20024;-71
2022/03/22 09:29:44;;;;;;;30.92;16.50;;;;;;;;;;5112295;28;20087;-72
2022/03/22 09:32:10;;;;;;;34.75;17.05;;;;;;;;;;5110826;28;20062;-71
2022/03/22 09:34:36;;;;;;;30.45;16.13;;;;;;;;;;5112024;28;20469;-71
2022/03/22 09:37:02;;;;;;;30.30;15.73;;;;;;;;;;5112237;28;20035;-71
2022/03/22 10:33:26;;;;;;;32.17;17.75;;;;;;;;;;5068366;28;20047;-80
2022/03/22 10:35:52;;;;;;;35.45;18.02;;;;;;;;;;5057371;28;20032;-82
2022/03/22 10:38:19;;;;;;;44.25;18.73;;;;;;;;;;5056907;28;20032;-82
2022/03/22 10:40:46;;;;;;;27.58;17.25;;;;;;;;;;5071663;28;20024;-81
2022/03/22 10:43:23;;;;;;;35.92;19.08;;;;;;;;;;5073107;28;20028;-82
2022/03/22 10:46:04;;;;;;;31.88;17.77;;;;;;;;;;5064378;28;20166;-82
2022/03/22 10:48:34;;;;;;;33.53;17.90;;;;;;;;;;5055930;28;20025;-82
2022/03/22 10:51:00;;;;;;;30.15;18.17;;;;;;;;;;5070061;28;20090;-82
2022/03/22 10:53:31;;;;;;;36.03;17.80;;;;;;;;;;5072760;28;20098;-83
2022/03/22 10:55:58;;;;;;;30.92;17.77;;;;;;;;;;5065157;28;20020;-81
2022/03/22 10:58:25;;;;;;;31.38;17.63;;;;;;;;;;5056654;28;20063;-84
2022/03/22 11:00:52;;;;;;;30.02;17.52;;;;;;;;;;5055386;28;20026;-82
2022/03/22 11:03:19;;;;;;;34.97;17.85;;;;;;;;;;5055468;28;20021;-84
2022/03/22 11:05:52;;;;;;;35.10;18.88;;;;;;;;;;5055270;28;20390;-82
2022/03/22 11:08:19;;;;;;;33.13;18.05;;;;;;;;;;5068098;28;20103;-83
2022/03/22 11:10:46;;;;;;;36.35;17.75;;;;;;;;;;5057195;28;20021;-83
2022/03/22 11:13:12;;;;;;;30.88;17.52;;;;;;;;;;5075213;28;20389;-81
2022/03/22 11:15:45;;;;;;;34.65;18.60;;;;;;;;;;5056269;28;20503;-83
2022/03/22 11:18:11;;;;;;;35.13;17.98;;;;;;;;;;5053924;28;20535;-84
2022/03/22 11:20:48;;;;;;;31.92;16.52;;;;;;;;;;5065399;28;20027;-85
2022/03/22 11:23:18;;;;;;;27.38;16.05;;;;;;;;;;5061045;28;20030;-85
2022/03/22 11:25:44;;;;;;;35.15;16.35;;;;;;;;;;5074878;28;20419;-83
2022/03/22 11:28:13;;;;;;;29.08;15.32;;;;;;;;;;5073821;28;20040;-83
2022/03/22 11:30:40;;;;;;;30.02;15.30;;;;;;;;;;5074615;28;20028;-83
2022/03/22 11:36:01;;;;;;;35.08;16.63;;;;;;;;;;5073924;28;20047;-82
2022/03/22 11:38:47;;;;;;;31.88;16.02;;;;;;;;;;5074785;28;20493;-82
2022/03/22 11:44:10;;;;;;;32.65;16.35;;;;;;;;;;5074383;28;20063;-82
2022/03/22 11:46:36;;;;;;;31.75;16.77;;;;;;;;;;5074569;28;20082;-82
2022/03/22 11:49:29;;;;;;;32.72;16.13;;;;;;;;;;5072738;28;20195;-79
2022/03/22 11:52:12;;;;;;;27.20;15.65;;;;;;;;;;5050514;28;20048;-78
2022/03/22 11:54:39;;;;;;;28.52;15.50;;;;;;;;;;5054196;28;20052;-77
2022/03/22 11:57:06;;;;;;;24.95;13.85;;;;;;;;;;5053782;28;20033;-79
2022/03/22 11:59:42;;;;;;;31.50;14.00;;;;;;;;;;5053750;28;20021;-77
2022/03/22 12:02:18;;;;;;;26.88;16.00;;;;;;;;;;5053922;28;20075;-76
2022/03/22 12:04:52;;;;;;;30.77;16.67;;;;;;;;;;5070212;28;20025;-78
2022/03/22 12:07:27;;;;;;;35.63;16.85;;;;;;;;;;5073366;28;20095;-77
2022/03/22 12:09:54;;;;;;;24.90;15.18;;;;;;;;;;5073077;28;20025;-78
2022/03/22 12:12:20;;;;;;;19.35;10.60;;;;;;;;;;5072882;28;20055;-77
2022/03/22 12:14:48;;;;;;;21.65;11.52;;;;;;;;;;5074698;28;20032;-77
2022/03/22 12:17:15;;;;;;;22.38;12.23;;;;;;;;;;5073882;28;20024;-77
2022/03/22 12:19:41;;;;;;;17.98;10.70;;;;;;;;;;5061040;28;20446;-76
2022/03/22 12:22:08;;;;;;;21.77;11.32;;;;;;;;;;5063724;28;20021;-76
2022/03/22 12:24:35;;;;;;;19.13;10.60;;;;;;;;;;5062336;28;20017;-76
2022/03/22 12:27:03;;;;;;;20.38;11.95;;;;;;;;;;5067334;28;20033;-77
2022/03/22 12:29:29;;;;;;;21.92;11.45;;;;;;;;;;5064807;28;20373;-77
2022/03/22 12:31:56;;;;;;;17.27;11.07;;;;;;;;;;5065626;28;20035;-75
2022/03/22 12:34:26;;;;;;;25.25;11.15;;;;;;;;;;5062306;28;20044;-75
2022/03/22 12:36:53;;;;;;;18.42;10.98;;;;;;;;;;5068050;28;20541;-75
2022/03/22 12:39:19;;;;;;;23.77;10.85;;;;;;;;;;5064652;28;20067;-75
2022/03/22 12:41:46;;;;;;;19.13;11.20;;;;;;;;;;5059936;28;20020;-75
2022/03/22 12:44:13;;;;;;;18.63;11.27;;;;;;;;;;5066352;28;20103;-76
2022/03/22 12:46:39;;;;;;;25.45;11.60;;;;;;;;;;5072610;28;20025;-75
2022/03/22 12:49:06;;;;;;;20.58;11.98;;;;;;;;;;5072947;28;20024;-75
2022/03/22 12:51:32;;;;;;;24.23;11.82;;;;;;;;;;5066708;28;20049;-75
2022/03/22 12:54:02;;;;;;;25.88;11.80;;;;;;;;;;5034707;28;20028;-75
2022/03/22 12:56:31;;;;;;;24.75;12.30;;;;;;;;;;5034498;28;20475;-75
2022/03/22 12:58:57;;;;;;;23.17;12.30;;;;;;;;;;5052288;28;20395;-75
2022/03/22 13:01:24;;;;;;;27.63;11.75;;;;;;;;;;5051919;28;20031;-74
2022/03/22 13:03:50;;;;;;;22.00;12.55;;;;;;;;;;5052194;28;20021;-74
2022/03/22 13:06:17;;;;;;;25.13;12.35;;;;;;;;;;5052058;28;20107;-74
2022/03/22 13:11:29;;;;;;;21.20;12.32;;;;;;;;;;5071932;28;20037;-74
2022/03/22 13:17:05;;;;;;;21.67;11.90;;;;;;;;;;5071962;28;20077;-74
2022/03/22 13:19:32;;;;;;;20.75;12.13;;;;;;;;;;5050405;28;20029;-74
2022/03/22 13:21:59;;;;;;;23.17;12.35;;;;;;;;;;5051708;28;20032;-74
2022/03/22 13:24:26;;;;;;;24.95;12.43;;;;;;;;;;5051946;28;20025;-74
2022/03/22 13:26:54;;;;;;;22.90;12.65;;;;;;;;;;5051823;28;20017;-74
2022/03/22 13:29:20;;;;;;;23.13;12.43;;;;;;;;;;5051951;28;20419;-76
2022/03/22 13:31:57;;;;;;;22.17;12.10;;;;;;;;;;5051761;28;20025;-76
2022/03/22 13:34:24;;;;;;;20.88;11.65;;;;;;;;;;5051645;28;20045;-76
2022/03/22 13:36:50;;;;;;;21.67;11.13;;;;;;;;;;5051521;28;20446;-76
2022/03/22 13:39:23;;;;;;;27.15;11.00;;;;;;;;;;5051724;28;20073;-76
2022/03/22 13:41:49;;;;;;;20.08;10.55;;;;;;;;;;5051660;28;20025;-76
2022/03/22 13:44:26;;;;;;;22.13;12.50;;;;;;;;;;5051896;28;20017;-76
2022/03/22 13:46:52;;;;;;;24.58;12.00;;;;;;;;;;5051439;28;20022;-76
2022/03/22 13:49:18;;;;;;;25.15;12.23;;;;;;;;;;5051594;28;20040;-76
2022/03/22 13:51:44;;;;;;;39.42;12.02;;;;;;;;;;5051551;28;20021;-76
2022/03/22 13:54:14;;;;;;;25.38;12.52;;;;;;;;;;5070087;28;20127;-75
2022/03/22 13:56:40;;;;;;;22.77;11.82;;;;;;;;;;5056600;28;20074;-77
2022/03/22 13:59:11;;;;;;;23.88;13.13;;;;;;;;;;5053932;28;20115;-75
2022/03/22 14:01:37;;;;;;;21.60;11.48;;;;;;;;;;5055121;28;20017;-75
2022/03/22 14:04:03;;;;;;;19.92;11.68;;;;;;;;;;5055454;28;20130;-76
2022/03/22 14:06:30;;;;;;;22.38;11.20;;;;;;;;;;5055248;28;20460;-76
2022/03/22 14:08:56;;;;;;;20.55;11.40;;;;;;;;;;5056019;28;20032;-75
2022/03/22 14:11:23;;;;;;;20.95;12.27;;;;;;;;;;5075133;28;20027;-75
2022/03/22 14:13:49;;;;;;;25.63;13.63;;;;;;;;;;5070447;28;20444;-75
2022/03/22 14:16:15;;;;;;;17.77;12.20;;;;;;;;;;5063656;28;20051;-76
2022/03/22 14:18:41;;;;;;;20.02;12.23;;;;;;;;;;5066242;28;20021;-76
2022/03/22 14:21:07;;;;;;;25.45;12.40;;;;;;;;;;5065102;28;20021;-77
2022/03/22 14:23:33;;;;;;;18.27;12.07;;;;;;;;;;5068961;28;20052;-78
2022/03/22 14:25:59;;;;;;;20.15;12.43;;;;;;;;;;5074571;28;20457;-75
2022/03/22 14:28:26;;;;;;;27.42;11.65;;;;;;;;;;5075236;28;20512;-74
2022/03/22 14:30:55;;;;;;;19.20;11.55;;;;;;;;;;5056816;28;20024;-77
2022/03/22 14:33:21;;;;;;;22.30;12.00;;;;;;;;;;5074515;28;20059;-77
2022/03/22 14:35:53;;;;;;;21.13;13.32;;;;;;;;;;5074698;28;20033;-75
2022/03/22 14:38:30;;;;;;;20.17;12.50;;;;;;;;;;5060308;28;20132;-75
2022/03/22 14:40:57;;;;;;;19.50;12.50;;;;;;;;;;5054555;28;20029;-75
2022/03/22 14:43:24;;;;;;;21.23;11.60;;;;;;;;;;5054571;28;20024;-75
2022/03/22 14:45:50;;;;;;;22.02;11.70;;;;;;;;;;5054432;28;20132;-75
2022/03/22 14:48:18;;;;;;;22.98;11.98;;;;;;;;;;5054516;28;20479;-74
2022/03/22 14:50:45;;;;;;;20.77;13.02;;;;;;;;;;5054389;28;20083;-75
2022/03/22 14:58:47;;;;;;;19.20;12.95;;;;;;;;;;5052633;28;20028;-79
2022/03/22 14:58:52;;;;;;;19.27;14.00;;;;;;;;;;5064750;28;20374;-81
2022/03/22 15:01:19;;;;;;;25.02;13.02;;;;;;;;;;5055348;28;20025;-80
2022/03/22 15:03:47;;;;;;;21.90;12.70;;;;;;;;;;5074367;28;20039;-78
2022/03/22 15:06:14;;;;;;;26.58;13.07;;;;;;;;;;5074310;28;20016;-74
2022/03/22 15:08:41;;;;;;;21.15;13.18;;;;;;;;;;5075027;28;20082;-78
2022/03/22 15:11:07;;;;;;;21.75;14.05;;;;;;;;;;5057798;28;20025;-78
2022/03/22 15:13:33;;;;;;;27.63;13.50;;;;;;;;;;5055006;28;20032;-78
2022/03/22 15:16:02;;;;;;;25.80;13.52;;;;;;;;;;5055253;28;20032;-77
2022/03/22 15:18:29;;;;;;;24.02;13.68;;;;;;;;;;5036887;28;20028;-78
2022/03/22 15:20:55;;;;;;;20.02;13.27;;;;;;;;;;5071673;28;20371;-78
2022/03/22 15:23:21;;;;;;;23.60;13.82;;;;;;;;;;5075164;28;20052;-76
2022/03/22 15:25:47;;;;;;;31.08;15.10;;;;;;;;;;5073901;28;20463;-73
2022/03/22 15:28:15;;;;;;;24.45;14.25;;;;;;;;;;5055591;28;20067;-75
2022/03/22 15:30:42;;;;;;;23.52;13.55;;;;;;;;;;5073721;28;20021;-75
2022/03/22 15:33:08;;;;;;;30.15;13.40;;;;;;;;;;5073662;28;20059;-73
2022/03/22 15:35:35;;;;;;;25.80;13.95;;;;;;;;;;5073337;28;20041;-73
2022/03/22 15:38:01;;;;;;;26.02;13.77;;;;;;;;;;5073413;28;20024;-72
2022/03/22 15:40:28;;;;;;;23.42;14.00;;;;;;;;;;5073226;28;20020;-74
2022/03/22 15:42:55;;;;;;;22.20;11.43;;;;;;;;;;5073406;28;20123;-75
2022/03/22 15:45:21;;;;;;;21.20;11.10;;;;;;;;;;5073656;28;20027;-79
2022/03/22 15:47:50;;;;;;;23.88;11.70;;;;;;;;;;5054872;28;20116;-79
2022/03/22 15:50:17;;;;;;;21.48;10.18;;;;;;;;;;5035344;28;20029;-78